sensor_id;sensor_type;location;lat;lon;timestamp;P1;durP1;ratioP1;P2;durP2;ratioP2
73421;SDS011;61637;47.760;-122.022;2024-03-22T00:00:01;3.0;;;0.9;;
73421;SDS011;61637;47.760;-122.022;2024-03-22T00:02:01;2.4;;;0.8;;
73421;SDS011;61637;47.760;-122.022;2024-03-22T00:04:01;3.1;;;1.0;;
73421;SDS011;61637;47.760;-122.022;2024-03-22T00:06:01;3.4;;;1.0;;
73421;SDS011;61637;47.760;-122.022;2024-03-22T00:08:02;3.0;;;1.0;;
73421;SDS011;61637;47.760;-122.022;2024-03-22T00:10:01;3.8;;;1.0;;
73421;SDS011;61637;47.760;-122.022;2024-03-22T00:12:01;2.6;;;1.0;;
73421;SDS011;61637;47.760;-122.022;2024-03-22T00:14:01;3.3;;;1.1;;
73421;SDS011;61637;47.760;-122.022;2024-03-22T00:16:01;2.8;;;1.0;;
73421;SDS011;61637;47.760;-122.022;2024-03-22T00:18:01;3.5;;;0.9;;
73421;SDS011;61637;47.760;-122.022;2024-03-22T00:20:02;4.3;;;1.0;;
73421;SDS011;61637;47.760;-122.022;2024-03-22T00:22:01;2.8;;;0.8;;
73421;SDS011;61637;47.760;-122.022;2024-03-22T00:24:01;4.7;;;1.0;;
73421;SDS011;61637;47.760;-122.022;2024-03-22T00:26:01;4.3;;;1.1;;
73421;SDS011;61637;47.760;-122.022;2024-03-22T00:28:01;3.1;;;0.9;;
73421;SDS011;61637;47.760;-122.022;2024-03-22T00:30:01;2.3;;;0.8;;
73421;SDS011;61637;47.760;-122.022;2024-03-22T00:32:01;3.4;;;1.0;;
73421;SDS011;61637;47.760;-122.022;2024-03-22T00:34:01;2.3;;;0.9;;
73421;SDS011;61637;47.760;-122.022;2024-03-22T00:36:02;3.4;;;1.0;;
73421;SDS011;61637;47.760;-122.022;2024-03-22T00:38:01;3.0;;;1.0;;
73421;SDS011;61637;47.760;-122.022;2024-03-22T00:40:01;2.7;;;1.0;;
73421;SDS011;61637;47.760;-122.022;2024-03-22T00:42:01;2.3;;;0.9;;
73421;SDS011;61637;47.760;-122.022;2024-03-22T00:44:02;3.3;;;0.9;;
73421;SDS011;61637;47.760;-122.022;2024-03-22T00:46:01;3.0;;;1.0;;
73421;SDS011;61637;47.760;-122.022;2024-03-22T00:48:01;3.4;;;0.9;;
73421;SDS011;61637;47.760;-122.022;2024-03-22T00:50:01;2.7;;;0.9;;
73421;SDS011;61637;47.760;-122.022;2024-03-22T00:52:01;2.4;;;0.9;;
73421;SDS011;61637;47.760;-122.022;2024-03-22T00:54:01;3.1;;;1.0;;
73421;SDS011;61637;47.760;-122.022;2024-03-22T00:56:01;2.6;;;0.9;;
73421;SDS011;61637;47.760;-122.022;2024-03-22T00:58:01;2.9;;;0.9;;
73421;SDS011;61637;47.760;-122.022;2024-03-22T01:00:01;3.1;;;0.9;;
73421;SDS011;61637;47.760;-122.022;2024-03-22T01:02:01;2.5;;;0.9;;
73421;SDS011;61637;47.760;-122.022;2024-03-22T01:04:01;2.0;;;0.8;;
73421;SDS011;61637;47.760;-122.022;2024-03-22T01:06:01;3.6;;;0.9;;
73421;SDS011;61637;47.760;-122.022;2024-03-22T01:08:02;2.5;;;0.8;;
73421;SDS011;61637;47.760;-122.022;2024-03-22T01:10:01;2.8;;;0.9;;
73421;SDS011;61637;47.760;-122.022;2024-03-22T01:12:01;3.0;;;1.0;;
73421;SDS011;61637;47.760;-122.022;2024-03-22T01:14:01;2.9;;;1.0;;
73421;SDS011;61637;47.760;-122.022;2024-03-22T01:16:01;2.1;;;0.8;;
73421;SDS011;61637;47.760;-122.022;2024-03-22T01:18:01;3.0;;;1.0;;
73421;SDS011;61637;47.760;-122.022;2024-03-22T01:20:01;2.9;;;0.9;;
73421;SDS011;61637;47.760;-122.022;2024-03-22T01:22:01;2.8;;;1.0;;
73421;SDS011;61637;47.760;-122.022;2024-03-22T01:24:01;2.6;;;0.9;;
73421;SDS011;61637;47.760;-122.022;2024-03-22T01:26:01;2.6;;;0.9;;
73421;SDS011;61637;47.760;-122.022;2024-03-22T01:28:01;2.6;;;1.0;;
73421;SDS011;61637;47.760;-122.022;2024-03-22T01:30:01;3.8;;;1.1;;
73421;SDS011;61637;47.760;-122.022;2024-03-22T01:32:02;3.5;;;1.0;;
73421;SDS011;61637;47.760;-122.022;2024-03-22T01:34:01;2.7;;;1.0;;
73421;SDS011;61637;47.760;-122.022;2024-03-22T01:36:01;2.9;;;1.0;;
73421;SDS011;61637;47.760;-122.022;2024-03-22T01:38:01;3.1;;;1.0;;
73421;SDS011;61637;47.760;-122.022;2024-03-22T01:40:02;4.2;;;1.0;;
73421;SDS011;61637;47.760;-122.022;2024-03-22T01:42:01;3.2;;;1.0;;
73421;SDS011;61637;47.760;-122.022;2024-03-22T01:44:01;3.2;;;1.1;;
73421;SDS011;61637;47.760;-122.022;2024-03-22T01:46:02;3.7;;;1.1;;
73421;SDS011;61637;47.760;-122.022;2024-03-22T01:48:01;3.6;;;1.2;;
73421;SDS011;61637;47.760;-122.022;2024-03-22T01:50:01;3.5;;;1.1;;
73421;SDS011;61637;47.760;-122.022;2024-03-22T01:52:01;3.4;;;1.0;;
73421;SDS011;61637;47.760;-122.022;2024-03-22T01:54:02;4.0;;;1.1;;
73421;SDS011;61637;47.760;-122.022;2024-03-22T01:56:02;3.7;;;1.1;;
73421;SDS011;61637;47.760;-122.022;2024-03-22T01:58:01;3.0;;;1.1;;
73421;SDS011;61637;47.760;-122.022;2024-03-22T02:00:01;3.0;;;1.0;;
73421;SDS011;61637;47.760;-122.022;2024-03-22T02:02:01;3.2;;;1.1;;
73421;SDS011;61637;47.760;-122.022;2024-03-22T02:04:01;3.4;;;1.0;;
73421;SDS011;61637;47.760;-122.022;2024-03-22T02:06:01;3.0;;;1.0;;
73421;SDS011;61637;47.760;-122.022;2024-03-22T02:08:01;4.3;;;1.0;;
73421;SDS011;61637;47.760;-122.022;2024-03-22T02:10:01;3.2;;;1.0;;
73421;SDS011;61637;47.760;-122.022;2024-03-22T02:12:01;3.2;;;1.0;;
73421;SDS011;61637;47.760;-122.022;2024-03-22T02:14:01;3.7;;;1.0;;
73421;SDS011;61637;47.760;-122.022;2024-03-22T02:16:03;7.8;;;1.3;;
73421;SDS011;61637;47.760;-122.022;2024-03-22T02:18:01;4.0;;;1.1;;
73421;SDS011;61637;47.760;-122.022;2024-03-22T02:20:02;3.0;;;1.1;;
73421;SDS011;61637;47.760;-122.022;2024-03-22T02:22:01;2.9;;;1.1;;
73421;SDS011;61637;47.760;-122.022;2024-03-22T02:24:01;5.3;;;1.3;;
73421;SDS011;61637;47.760;-122.022;2024-03-22T02:26:01;4.4;;;1.2;;
73421;SDS011;61637;47.760;-122.022;2024-03-22T02:28:01;3.3;;;1.0;;
73421;SDS011;61637;47.760;-122.022;2024-03-22T02:30:01;2.5;;;0.9;;
73421;SDS011;61637;47.760;-122.022;2024-03-22T02:32:01;2.7;;;1.1;;
73421;SDS011;61637;47.760;-122.022;2024-03-22T02:34:01;3.5;;;1.1;;
73421;SDS011;61637;47.760;-122.022;2024-03-22T02:36:01;3.0;;;1.0;;
73421;SDS011;61637;47.760;-122.022;2024-03-22T02:38:01;3.4;;;1.1;;
73421;SDS011;61637;47.760;-122.022;2024-03-22T02:40:01;3.4;;;1.2;;
73421;SDS011;61637;47.760;-122.022;2024-03-22T02:42:01;3.9;;;1.2;;
73421;SDS011;61637;47.760;-122.022;2024-03-22T02:44:01;2.9;;;1.1;;
73421;SDS011;61637;47.760;-122.022;2024-03-22T02:46:01;3.1;;;1.0;;
73421;SDS011;61637;47.760;-122.022;2024-03-22T02:48:01;3.4;;;1.0;;
73421;SDS011;61637;47.760;-122.022;2024-03-22T02:50:01;2.8;;;1.0;;
73421;SDS011;61637;47.760;-122.022;2024-03-22T02:52:01;3.8;;;1.0;;
73421;SDS011;61637;47.760;-122.022;2024-03-22T02:54:01;3.5;;;1.0;;
73421;SDS011;61637;47.760;-122.022;2024-03-22T02:56:01;4.0;;;1.1;;
73421;SDS011;61637;47.760;-122.022;2024-03-22T02:58:01;4.3;;;1.1;;
73421;SDS011;61637;47.760;-122.022;2024-03-22T03:00:01;2.9;;;1.2;;
73421;SDS011;61637;47.760;-122.022;2024-03-22T03:02:01;4.0;;;1.1;;
73421;SDS011;61637;47.760;-122.022;2024-03-22T03:04:01;5.1;;;1.3;;
73421;SDS011;61637;47.760;-122.022;2024-03-22T03:06:01;4.4;;;1.1;;
73421;SDS011;61637;47.760;-122.022;2024-03-22T03:08:01;2.9;;;1.1;;
73421;SDS011;61637;47.760;-122.022;2024-03-22T03:10:01;3.6;;;1.1;;
73421;SDS011;61637;47.760;-122.022;2024-03-22T03:12:01;2.6;;;0.9;;
73421;SDS011;61637;47.760;-122.022;2024-03-22T03:14:01;3.3;;;1.0;;
73421;SDS011;61637;47.760;-122.022;2024-03-22T03:16:01;4.1;;;1.2;;
73421;SDS011;61637;47.760;-122.022;2024-03-22T03:18:01;3.5;;;0.9;;
73421;SDS011;61637;47.760;-122.022;2024-03-22T03:20:01;2.8;;;1.0;;
73421;SDS011;61637;47.760;-122.022;2024-03-22T03:22:01;3.1;;;1.0;;
73421;SDS011;61637;47.760;-122.022;2024-03-22T03:24:01;4.5;;;1.0;;
73421;SDS011;61637;47.760;-122.022;2024-03-22T03:26:01;2.9;;;1.0;;
73421;SDS011;61637;47.760;-122.022;2024-03-22T03:28:01;3.2;;;1.0;;
73421;SDS011;61637;47.760;-122.022;2024-03-22T03:30:02;3.0;;;1.1;;
73421;SDS011;61637;47.760;-122.022;2024-03-22T03:32:02;3.7;;;1.1;;
73421;SDS011;61637;47.760;-122.022;2024-03-22T03:34:01;2.6;;;0.9;;
73421;SDS011;61637;47.760;-122.022;2024-03-22T03:36:01;3.1;;;1.1;;
73421;SDS011;61637;47.760;-122.022;2024-03-22T03:38:01;4.6;;;1.1;;
73421;SDS011;61637;47.760;-122.022;2024-03-22T03:40:01;3.1;;;1.1;;
73421;SDS011;61637;47.760;-122.022;2024-03-22T03:42:01;3.9;;;1.2;;
73421;SDS011;61637;47.760;-122.022;2024-03-22T03:44:02;2.9;;;1.0;;
73421;SDS011;61637;47.760;-122.022;2024-03-22T03:46:01;3.3;;;1.1;;
73421;SDS011;61637;47.760;-122.022;2024-03-22T03:48:01;4.0;;;1.1;;
73421;SDS011;61637;47.760;-122.022;2024-03-22T03:50:01;3.6;;;1.1;;
73421;SDS011;61637;47.760;-122.022;2024-03-22T03:52:02;4.1;;;1.1;;
73421;SDS011;61637;47.760;-122.022;2024-03-22T03:54:01;3.2;;;1.1;;
73421;SDS011;61637;47.760;-122.022;2024-03-22T03:56:01;4.3;;;1.2;;
73421;SDS011;61637;47.760;-122.022;2024-03-22T03:58:01;3.8;;;1.0;;
73421;SDS011;61637;47.760;-122.022;2024-03-22T04:00:01;3.0;;;1.1;;
73421;SDS011;61637;47.760;-122.022;2024-03-22T04:02:01;2.8;;;1.0;;
73421;SDS011;61637;47.760;-122.022;2024-03-22T04:04:02;3.7;;;1.1;;
73421;SDS011;61637;47.760;-122.022;2024-03-22T04:06:01;3.1;;;1.0;;
73421;SDS011;61637;47.760;-122.022;2024-03-22T04:08:01;3.6;;;1.1;;
73421;SDS011;61637;47.760;-122.022;2024-03-22T04:10:01;4.1;;;1.1;;
73421;SDS011;61637;47.760;-122.022;2024-03-22T04:12:01;4.5;;;1.2;;
73421;SDS011;61637;47.760;-122.022;2024-03-22T04:14:01;3.6;;;1.1;;
73421;SDS011;61637;47.760;-122.022;2024-03-22T04:16:01;2.8;;;1.0;;
73421;SDS011;61637;47.760;-122.022;2024-03-22T04:18:01;3.0;;;1.0;;
73421;SDS011;61637;47.760;-122.022;2024-03-22T04:20:01;4.5;;;1.1;;
73421;SDS011;61637;47.760;-122.022;2024-03-22T04:22:01;5.4;;;1.1;;
73421;SDS011;61637;47.760;-122.022;2024-03-22T04:24:01;4.9;;;1.2;;
73421;SDS011;61637;47.760;-122.022;2024-03-22T04:26:02;3.8;;;1.1;;
73421;SDS011;61637;47.760;-122.022;2024-03-22T04:28:01;4.1;;;1.4;;
73421;SDS011;61637;47.760;-122.022;2024-03-22T04:30:01;5.4;;;1.1;;
73421;SDS011;61637;47.760;-122.022;2024-03-22T04:32:02;3.4;;;1.2;;
73421;SDS011;61637;47.760;-122.022;2024-03-22T04:34:01;3.5;;;1.3;;
73421;SDS011;61637;47.760;-122.022;2024-03-22T04:36:02;3.6;;;1.2;;
73421;SDS011;61637;47.760;-122.022;2024-03-22T04:38:01;3.8;;;1.3;;
73421;SDS011;61637;47.760;-122.022;2024-03-22T04:40:01;3.6;;;1.1;;
73421;SDS011;61637;47.760;-122.022;2024-03-22T04:42:02;4.1;;;1.2;;
73421;SDS011;61637;47.760;-122.022;2024-03-22T04:44:01;3.9;;;1.3;;
73421;SDS011;61637;47.760;-122.022;2024-03-22T04:46:01;3.9;;;1.1;;
73421;SDS011;61637;47.760;-122.022;2024-03-22T04:48:03;4.9;;;1.2;;
73421;SDS011;61637;47.760;-122.022;2024-03-22T04:50:01;3.5;;;1.2;;
73421;SDS011;61637;47.760;-122.022;2024-03-22T04:52:01;4.9;;;1.3;;
73421;SDS011;61637;47.760;-122.022;2024-03-22T04:54:01;3.9;;;1.2;;
73421;SDS011;61637;47.760;-122.022;2024-03-22T04:56:01;4.6;;;1.4;;
73421;SDS011;61637;47.760;-122.022;2024-03-22T04:58:01;4.1;;;1.3;;
73421;SDS011;61637;47.760;-122.022;2024-03-22T05:00:01;4.8;;;1.3;;
73421;SDS011;61637;47.760;-122.022;2024-03-22T05:02:01;5.5;;;1.4;;
73421;SDS011;61637;47.760;-122.022;2024-03-22T05:04:01;5.3;;;1.6;;
73421;SDS011;61637;47.760;-122.022;2024-03-22T05:06:01;3.6;;;1.3;;
73421;SDS011;61637;47.760;-122.022;2024-03-22T05:08:02;3.5;;;1.2;;
73421;SDS011;61637;47.760;-122.022;2024-03-22T05:10:02;4.9;;;1.3;;
73421;SDS011;61637;47.760;-122.022;2024-03-22T05:12:01;4.5;;;1.2;;
73421;SDS011;61637;47.760;-122.022;2024-03-22T05:14:01;4.0;;;1.3;;
73421;SDS011;61637;47.760;-122.022;2024-03-22T05:16:01;3.6;;;1.1;;
73421;SDS011;61637;47.760;-122.022;2024-03-22T05:18:02;2.6;;;1.2;;
73421;SDS011;61637;47.760;-122.022;2024-03-22T05:20:01;3.2;;;1.1;;
73421;SDS011;61637;47.760;-122.022;2024-03-22T05:22:01;3.9;;;1.3;;
73421;SDS011;61637;47.760;-122.022;2024-03-22T05:24:01;4.2;;;1.4;;
73421;SDS011;61637;47.760;-122.022;2024-03-22T05:26:01;4.5;;;1.3;;
73421;SDS011;61637;47.760;-122.022;2024-03-22T05:28:01;5.3;;;1.6;;
73421;SDS011;61637;47.760;-122.022;2024-03-22T05:30:02;5.3;;;1.7;;
73421;SDS011;61637;47.760;-122.022;2024-03-22T05:32:01;4.7;;;1.5;;
73421;SDS011;61637;47.760;-122.022;2024-03-22T05:34:01;6.9;;;1.6;;
73421;SDS011;61637;47.760;-122.022;2024-03-22T05:36:01;7.0;;;1.8;;
73421;SDS011;61637;47.760;-122.022;2024-03-22T05:38:01;4.1;;;1.5;;
73421;SDS011;61637;47.760;-122.022;2024-03-22T05:40:02;3.2;;;1.3;;
73421;SDS011;61637;47.760;-122.022;2024-03-22T05:42:02;4.1;;;1.4;;
73421;SDS011;61637;47.760;-122.022;2024-03-22T05:44:01;4.2;;;1.6;;
73421;SDS011;61637;47.760;-122.022;2024-03-22T05:46:01;7.0;;;1.8;;
73421;SDS011;61637;47.760;-122.022;2024-03-22T05:48:01;4.2;;;1.6;;
73421;SDS011;61637;47.760;-122.022;2024-03-22T05:50:01;4.4;;;1.4;;
73421;SDS011;61637;47.760;-122.022;2024-03-22T05:52:01;4.7;;;1.5;;
73421;SDS011;61637;47.760;-122.022;2024-03-22T05:54:01;5.6;;;1.5;;
73421;SDS011;61637;47.760;-122.022;2024-03-22T05:56:01;5.2;;;1.4;;
73421;SDS011;61637;47.760;-122.022;2024-03-22T05:58:01;5.4;;;1.5;;
73421;SDS011;61637;47.760;-122.022;2024-03-22T06:00:01;4.1;;;1.3;;
73421;SDS011;61637;47.760;-122.022;2024-03-22T06:02:02;4.2;;;1.2;;
73421;SDS011;61637;47.760;-122.022;2024-03-22T06:04:01;5.3;;;1.8;;
73421;SDS011;61637;47.760;-122.022;2024-03-22T06:06:02;4.2;;;1.6;;
73421;SDS011;61637;47.760;-122.022;2024-03-22T06:08:01;5.3;;;1.6;;
73421;SDS011;61637;47.760;-122.022;2024-03-22T06:10:01;4.4;;;1.6;;
73421;SDS011;61637;47.760;-122.022;2024-03-22T06:12:01;3.9;;;1.4;;
73421;SDS011;61637;47.760;-122.022;2024-03-22T06:14:01;8.0;;;1.7;;
73421;SDS011;61637;47.760;-122.022;2024-03-22T06:16:01;3.8;;;1.4;;
73421;SDS011;61637;47.760;-122.022;2024-03-22T06:18:02;3.3;;;1.3;;
73421;SDS011;61637;47.760;-122.022;2024-03-22T06:20:01;3.7;;;1.3;;
73421;SDS011;61637;47.760;-122.022;2024-03-22T06:22:01;4.2;;;1.3;;
73421;SDS011;61637;47.760;-122.022;2024-03-22T06:24:01;4.3;;;1.6;;
73421;SDS011;61637;47.760;-122.022;2024-03-22T06:26:01;5.2;;;1.8;;
73421;SDS011;61637;47.760;-122.022;2024-03-22T06:28:01;4.8;;;1.8;;
73421;SDS011;61637;47.760;-122.022;2024-03-22T06:30:02;5.1;;;1.5;;
73421;SDS011;61637;47.760;-122.022;2024-03-22T06:32:01;5.4;;;1.6;;
73421;SDS011;61637;47.760;-122.022;2024-03-22T06:34:01;4.4;;;1.6;;
73421;SDS011;61637;47.760;-122.022;2024-03-22T06:36:02;4.4;;;1.6;;
73421;SDS011;61637;47.760;-122.022;2024-03-22T06:38:01;4.4;;;1.4;;
73421;SDS011;61637;47.760;-122.022;2024-03-22T06:40:01;4.4;;;1.6;;
73421;SDS011;61637;47.760;-122.022;2024-03-22T06:42:01;4.8;;;1.5;;
73421;SDS011;61637;47.760;-122.022;2024-03-22T06:44:01;4.1;;;1.4;;
73421;SDS011;61637;47.760;-122.022;2024-03-22T06:46:01;6.0;;;1.7;;
73421;SDS011;61637;47.760;-122.022;2024-03-22T06:48:01;4.0;;;1.6;;
73421;SDS011;61637;47.760;-122.022;2024-03-22T06:50:01;4.7;;;1.5;;
73421;SDS011;61637;47.760;-122.022;2024-03-22T06:52:01;4.1;;;1.6;;
73421;SDS011;61637;47.760;-122.022;2024-03-22T06:54:01;4.4;;;1.4;;
73421;SDS011;61637;47.760;-122.022;2024-03-22T06:56:01;3.9;;;1.2;;
73421;SDS011;61637;47.760;-122.022;2024-03-22T06:58:01;4.4;;;1.7;;
73421;SDS011;61637;47.760;-122.022;2024-03-22T07:00:01;5.0;;;1.6;;
73421;SDS011;61637;47.760;-122.022;2024-03-22T07:02:01;7.8;;;2.5;;
73421;SDS011;61637;47.760;-122.022;2024-03-22T07:04:01;8.1;;;2.6;;
73421;SDS011;61637;47.760;-122.022;2024-03-22T07:06:02;4.6;;;2.0;;
73421;SDS011;61637;47.760;-122.022;2024-03-22T07:08:02;6.6;;;2.7;;
73421;SDS011;61637;47.760;-122.022;2024-03-22T07:10:01;5.9;;;2.5;;
73421;SDS011;61637;47.760;-122.022;2024-03-22T07:12:01;6.5;;;3.1;;
73421;SDS011;61637;47.760;-122.022;2024-03-22T07:14:01;5.4;;;2.4;;
73421;SDS011;61637;47.760;-122.022;2024-03-22T07:16:02;6.8;;;2.9;;
73421;SDS011;61637;47.760;-122.022;2024-03-22T07:18:02;7.3;;;2.7;;
73421;SDS011;61637;47.760;-122.022;2024-03-22T07:20:01;6.5;;;3.0;;
73421;SDS011;61637;47.760;-122.022;2024-03-22T07:22:01;7.0;;;2.7;;
73421;SDS011;61637;47.760;-122.022;2024-03-22T07:24:01;6.3;;;3.5;;
73421;SDS011;61637;47.760;-122.022;2024-03-22T07:26:01;7.1;;;2.9;;
73421;SDS011;61637;47.760;-122.022;2024-03-22T07:28:01;5.2;;;2.5;;
73421;SDS011;61637;47.760;-122.022;2024-03-22T07:30:02;7.1;;;2.9;;
73421;SDS011;61637;47.760;-122.022;2024-03-22T07:32:01;6.0;;;2.3;;
73421;SDS011;61637;47.760;-122.022;2024-03-22T07:34:01;5.5;;;2.5;;
73421;SDS011;61637;47.760;-122.022;2024-03-22T07:36:02;5.3;;;2.6;;
73421;SDS011;61637;47.760;-122.022;2024-03-22T07:38:01;6.6;;;2.6;;
73421;SDS011;61637;47.760;-122.022;2024-03-22T07:40:01;5.8;;;2.7;;
73421;SDS011;61637;47.760;-122.022;2024-03-22T07:42:01;7.5;;;3.0;;
73421;SDS011;61637;47.760;-122.022;2024-03-22T07:44:02;5.7;;;2.6;;
73421;SDS011;61637;47.760;-122.022;2024-03-22T07:46:01;5.9;;;2.8;;
73421;SDS011;61637;47.760;-122.022;2024-03-22T07:48:01;5.9;;;2.4;;
73421;SDS011;61637;47.760;-122.022;2024-03-22T07:50:01;5.2;;;2.1;;
73421;SDS011;61637;47.760;-122.022;2024-03-22T07:52:01;4.6;;;1.9;;
73421;SDS011;61637;47.760;-122.022;2024-03-22T07:54:01;6.1;;;1.9;;
73421;SDS011;61637;47.760;-122.022;2024-03-22T07:56:01;4.6;;;2.0;;
73421;SDS011;61637;47.760;-122.022;2024-03-22T07:58:01;6.4;;;2.1;;
73421;SDS011;61637;47.760;-122.022;2024-03-22T08:00:01;4.9;;;1.9;;
73421;SDS011;61637;47.760;-122.022;2024-03-22T08:02:02;4.4;;;1.5;;
73421;SDS011;61637;47.760;-122.022;2024-03-22T08:04:01;4.9;;;1.8;;
73421;SDS011;61637;47.760;-122.022;2024-03-22T08:06:02;5.9;;;1.8;;
73421;SDS011;61637;47.760;-122.022;2024-03-22T08:08:01;5.1;;;1.7;;
73421;SDS011;61637;47.760;-122.022;2024-03-22T08:10:01;3.9;;;1.5;;
73421;SDS011;61637;47.760;-122.022;2024-03-22T08:12:01;5.3;;;1.7;;
73421;SDS011;61637;47.760;-122.022;2024-03-22T08:14:01;4.5;;;1.5;;
73421;SDS011;61637;47.760;-122.022;2024-03-22T08:16:01;6.7;;;1.5;;
73421;SDS011;61637;47.760;-122.022;2024-03-22T08:18:02;3.8;;;1.4;;
73421;SDS011;61637;47.760;-122.022;2024-03-22T08:20:01;4.9;;;1.5;;
73421;SDS011;61637;47.760;-122.022;2024-03-22T08:22:01;4.3;;;1.5;;
73421;SDS011;61637;47.760;-122.022;2024-03-22T08:24:01;4.8;;;1.5;;
73421;SDS011;61637;47.760;-122.022;2024-03-22T08:26:01;5.3;;;1.6;;
73421;SDS011;61637;47.760;-122.022;2024-03-22T08:28:01;3.7;;;1.3;;
73421;SDS011;61637;47.760;-122.022;2024-03-22T08:30:01;3.8;;;1.4;;
73421;SDS011;61637;47.760;-122.022;2024-03-22T08:32:01;4.9;;;1.2;;
73421;SDS011;61637;47.760;-122.022;2024-03-22T08:34:01;4.7;;;1.1;;
73421;SDS011;61637;47.760;-122.022;2024-03-22T08:36:01;4.5;;;1.2;;
73421;SDS011;61637;47.760;-122.022;2024-03-22T08:38:01;5.1;;;1.4;;
73421;SDS011;61637;47.760;-122.022;2024-03-22T08:40:01;3.7;;;1.2;;
73421;SDS011;61637;47.760;-122.022;2024-03-22T08:42:01;2.7;;;1.1;;
73421;SDS011;61637;47.760;-122.022;2024-03-22T08:44:01;5.4;;;1.3;;
73421;SDS011;61637;47.760;-122.022;2024-03-22T08:46:01;3.9;;;1.3;;
73421;SDS011;61637;47.760;-122.022;2024-03-22T08:48:01;3.6;;;1.2;;
73421;SDS011;61637;47.760;-122.022;2024-03-22T08:50:01;2.7;;;1.1;;
73421;SDS011;61637;47.760;-122.022;2024-03-22T08:52:01;2.6;;;1.0;;
73421;SDS011;61637;47.760;-122.022;2024-03-22T08:54:01;5.4;;;1.5;;
73421;SDS011;61637;47.760;-122.022;2024-03-22T08:56:01;3.3;;;1.2;;
73421;SDS011;61637;47.760;-122.022;2024-03-22T08:58:01;3.1;;;1.1;;
73421;SDS011;61637;47.760;-122.022;2024-03-22T09:00:01;4.0;;;1.1;;
73421;SDS011;61637;47.760;-122.022;2024-03-22T09:02:01;4.0;;;1.1;;
73421;SDS011;61637;47.760;-122.022;2024-03-22T09:04:02;4.9;;;1.6;;
73421;SDS011;61637;47.760;-122.022;2024-03-22T09:06:01;3.1;;;1.1;;
73421;SDS011;61637;47.760;-122.022;2024-03-22T09:08:02;2.8;;;1.0;;
73421;SDS011;61637;47.760;-122.022;2024-03-22T09:10:01;4.7;;;1.4;;
73421;SDS011;61637;47.760;-122.022;2024-03-22T09:12:01;5.1;;;1.6;;
73421;SDS011;61637;47.760;-122.022;2024-03-22T09:14:01;3.9;;;1.2;;
73421;SDS011;61637;47.760;-122.022;2024-03-22T09:16:02;3.3;;;1.3;;
73421;SDS011;61637;47.760;-122.022;2024-03-22T09:18:01;6.3;;;1.1;;
73421;SDS011;61637;47.760;-122.022;2024-03-22T09:20:01;4.1;;;1.1;;
73421;SDS011;61637;47.760;-122.022;2024-03-22T09:22:01;3.8;;;1.2;;
73421;SDS011;61637;47.760;-122.022;2024-03-22T09:24:01;4.6;;;1.2;;
73421;SDS011;61637;47.760;-122.022;2024-03-22T09:26:01;5.1;;;1.3;;
73421;SDS011;61637;47.760;-122.022;2024-03-22T09:28:04;4.8;;;1.6;;
73421;SDS011;61637;47.760;-122.022;2024-03-22T09:30:01;4.1;;;1.5;;
73421;SDS011;61637;47.760;-122.022;2024-03-22T09:32:01;5.5;;;1.3;;
73421;SDS011;61637;47.760;-122.022;2024-03-22T09:34:01;4.0;;;1.1;;
73421;SDS011;61637;47.760;-122.022;2024-03-22T09:36:01;4.8;;;1.1;;
73421;SDS011;61637;47.760;-122.022;2024-03-22T09:38:02;3.2;;;1.2;;
73421;SDS011;61637;47.760;-122.022;2024-03-22T09:40:02;4.2;;;1.5;;
73421;SDS011;61637;47.760;-122.022;2024-03-22T09:42:06;5.1;;;1.6;;
73421;SDS011;61637;47.760;-122.022;2024-03-22T09:44:03;7.0;;;1.8;;
73421;SDS011;61637;47.760;-122.022;2024-03-22T09:46:02;3.5;;;1.3;;
73421;SDS011;61637;47.760;-122.022;2024-03-22T09:48:01;4.4;;;1.3;;
73421;SDS011;61637;47.760;-122.022;2024-03-22T09:50:01;3.1;;;1.2;;
73421;SDS011;61637;47.760;-122.022;2024-03-22T09:52:03;3.7;;;1.4;;
73421;SDS011;61637;47.760;-122.022;2024-03-22T09:54:01;3.2;;;1.1;;
73421;SDS011;61637;47.760;-122.022;2024-03-22T09:56:01;4.0;;;1.1;;
73421;SDS011;61637;47.760;-122.022;2024-03-22T09:58:01;3.5;;;1.2;;
73421;SDS011;61637;47.760;-122.022;2024-03-22T10:00:01;3.1;;;1.1;;
73421;SDS011;61637;47.760;-122.022;2024-03-22T10:02:03;3.0;;;1.1;;
73421;SDS011;61637;47.760;-122.022;2024-03-22T10:04:01;3.2;;;1.1;;
73421;SDS011;61637;47.760;-122.022;2024-03-22T10:06:01;3.7;;;1.0;;
73421;SDS011;61637;47.760;-122.022;2024-03-22T10:08:01;3.7;;;1.3;;
73421;SDS011;61637;47.760;-122.022;2024-03-22T10:10:01;3.2;;;1.2;;
73421;SDS011;61637;47.760;-122.022;2024-03-22T10:12:01;2.9;;;1.1;;
73421;SDS011;61637;47.760;-122.022;2024-03-22T10:14:02;3.9;;;1.1;;
73421;SDS011;61637;47.760;-122.022;2024-03-22T10:16:01;3.3;;;1.3;;
73421;SDS011;61637;47.760;-122.022;2024-03-22T10:18:01;3.4;;;1.2;;
73421;SDS011;61637;47.760;-122.022;2024-03-22T10:20:01;4.3;;;1.1;;
73421;SDS011;61637;47.760;-122.022;2024-03-22T10:22:01;3.7;;;1.1;;
73421;SDS011;61637;47.760;-122.022;2024-03-22T10:24:01;4.5;;;1.0;;
73421;SDS011;61637;47.760;-122.022;2024-03-22T10:26:02;2.7;;;1.0;;
73421;SDS011;61637;47.760;-122.022;2024-03-22T10:28:01;3.3;;;1.0;;
73421;SDS011;61637;47.760;-122.022;2024-03-22T10:30:01;2.7;;;1.1;;
73421;SDS011;61637;47.760;-122.022;2024-03-22T10:32:01;4.0;;;1.0;;
73421;SDS011;61637;47.760;-122.022;2024-03-22T10:34:02;3.3;;;1.1;;
73421;SDS011;61637;47.760;-122.022;2024-03-22T10:36:01;4.5;;;1.1;;
73421;SDS011;61637;47.760;-122.022;2024-03-22T10:38:01;4.3;;;0.9;;
73421;SDS011;61637;47.760;-122.022;2024-03-22T10:40:02;3.6;;;1.0;;
73421;SDS011;61637;47.760;-122.022;2024-03-22T10:42:01;4.3;;;1.0;;
73421;SDS011;61637;47.760;-122.022;2024-03-22T10:44:01;3.3;;;1.1;;
73421;SDS011;61637;47.760;-122.022;2024-03-22T10:46:02;3.0;;;0.9;;
73421;SDS011;61637;47.760;-122.022;2024-03-22T10:48:07;2.8;;;0.9;;
73421;SDS011;61637;47.760;-122.022;2024-03-22T10:50:04;3.7;;;1.0;;
73421;SDS011;61637;47.760;-122.022;2024-03-22T10:52:02;5.3;;;1.0;;
73421;SDS011;61637;47.760;-122.022;2024-03-22T10:54:02;3.0;;;1.0;;
73421;SDS011;61637;47.760;-122.022;2024-03-22T10:56:02;3.3;;;1.0;;
73421;SDS011;61637;47.760;-122.022;2024-03-22T10:58:01;3.3;;;1.0;;
73421;SDS011;61637;47.760;-122.022;2024-03-22T11:00:01;4.8;;;1.0;;
73421;SDS011;61637;47.760;-122.022;2024-03-22T11:02:04;3.0;;;0.9;;
73421;SDS011;61637;47.760;-122.022;2024-03-22T11:04:03;4.7;;;1.1;;
73421;SDS011;61637;47.760;-122.022;2024-03-22T11:06:01;3.7;;;1.2;;
73421;SDS011;61637;47.760;-122.022;2024-03-22T11:08:02;3.8;;;1.1;;
73421;SDS011;61637;47.760;-122.022;2024-03-22T11:10:02;3.6;;;1.0;;
73421;SDS011;61637;47.760;-122.022;2024-03-22T11:12:04;4.2;;;1.1;;
73421;SDS011;61637;47.760;-122.022;2024-03-22T11:14:01;4.1;;;1.2;;
73421;SDS011;61637;47.760;-122.022;2024-03-22T11:16:01;4.6;;;1.2;;
73421;SDS011;61637;47.760;-122.022;2024-03-22T11:18:01;4.0;;;1.2;;
73421;SDS011;61637;47.760;-122.022;2024-03-22T11:20:01;3.4;;;1.0;;
73421;SDS011;61637;47.760;-122.022;2024-03-22T11:22:01;3.5;;;1.1;;
73421;SDS011;61637;47.760;-122.022;2024-03-22T11:24:02;2.7;;;0.9;;
73421;SDS011;61637;47.760;-122.022;2024-03-22T11:26:01;2.9;;;1.0;;
73421;SDS011;61637;47.760;-122.022;2024-03-22T11:28:02;4.0;;;1.0;;
73421;SDS011;61637;47.760;-122.022;2024-03-22T11:30:01;3.2;;;1.2;;
73421;SDS011;61637;47.760;-122.022;2024-03-22T11:32:01;3.8;;;1.1;;
73421;SDS011;61637;47.760;-122.022;2024-03-22T11:34:02;4.0;;;1.3;;
73421;SDS011;61637;47.760;-122.022;2024-03-22T11:36:02;4.1;;;1.2;;
73421;SDS011;61637;47.760;-122.022;2024-03-22T11:38:02;3.6;;;1.2;;
73421;SDS011;61637;47.760;-122.022;2024-03-22T11:40:01;4.5;;;1.5;;
73421;SDS011;61637;47.760;-122.022;2024-03-22T11:42:02;4.3;;;1.5;;
73421;SDS011;61637;47.760;-122.022;2024-03-22T11:44:02;3.4;;;1.4;;
73421;SDS011;61637;47.760;-122.022;2024-03-22T11:46:01;4.3;;;1.4;;
73421;SDS011;61637;47.760;-122.022;2024-03-22T11:48:03;4.1;;;1.4;;
73421;SDS011;61637;47.760;-122.022;2024-03-22T11:50:02;4.2;;;1.5;;